Redford Township, Michigan
Current Conditions -  °F | °C
As of 1:35 PM on Sunday 21 Dec 2014 (Local Time) from KVLL Reporting Station
Broken Clouds Broken Clouds  
Wind Chill: 31°   Ceiling: 6000
Heat Index: 36°   Visibility: 10mi
Dew Point: 24°   Wind: 7mph
Humidity: 60%   Direction: 200°SSW
Pressure: 30.25"   Gusts: NA
Location:  42.4239°N, 83.3013°W
Report Text: KVLL 211835Z AUTO 20006KT 10SM BKN060 02/M05 A3025 RMK AO2 T00241046
Loading
Personal Weather Stations






























Interactive Weather Map New forecast layout! Learn more

10-Day Weather Forecast

Advertisements
Track Severe Weather on mobile